createdAt,value
2022-12-03T00:01:19.197Z,-0.51
2022-12-03T00:03:47.204Z,-0.50
2022-12-03T00:06:17.618Z,-0.50
2022-12-03T00:08:45.359Z,-0.44
2022-12-03T00:11:13.317Z,-0.39
2022-12-03T00:13:41.411Z,-0.43
2022-12-03T00:16:09.271Z,-0.42
2022-12-03T00:18:37.177Z,-0.45
2022-12-03T00:21:05.239Z,-0.55
2022-12-03T00:23:40.163Z,-0.47
2022-12-03T00:26:09.770Z,-0.66
2022-12-03T00:28:37.625Z,-0.65
2022-12-03T00:31:05.705Z,-0.70
2022-12-03T00:33:33.653Z,-0.69
2022-12-03T00:36:01.435Z,-0.69
2022-12-03T00:38:29.183Z,-0.72
2022-12-03T00:40:58.417Z,-0.76
2022-12-03T00:43:26.313Z,-0.76
2022-12-03T00:45:54.133Z,-0.72
2022-12-03T00:48:22.078Z,-0.74
2022-12-03T00:50:49.858Z,-0.76
2022-12-03T00:53:17.703Z,-0.78
2022-12-03T00:55:45.561Z,-0.75
2022-12-03T00:58:14.675Z,-0.75
2022-12-03T01:00:42.498Z,-0.83
2022-12-03T01:03:10.823Z,-0.82
2022-12-03T01:05:38.760Z,-0.83
2022-12-03T01:08:07.179Z,-0.81
2022-12-03T01:10:35.382Z,-0.82
2022-12-03T01:13:03.320Z,-0.80
2022-12-03T01:15:35.081Z,-0.81
2022-12-03T01:18:03.068Z,-0.87
2022-12-03T01:20:31.164Z,-0.97
2022-12-03T01:22:58.936Z,-1.11
2022-12-03T01:25:26.817Z,-1.21
2022-12-03T01:27:54.679Z,-1.25
2022-12-03T01:30:22.934Z,-1.33
2022-12-03T01:32:51.182Z,-1.42
2022-12-03T01:35:20.251Z,-1.49
2022-12-03T01:37:47.983Z,-1.61
2022-12-03T01:40:20.980Z,-1.70
2022-12-03T01:42:49.008Z,-1.79
2022-12-03T01:45:23.752Z,-1.77
2022-12-03T01:47:53.105Z,-1.79
2022-12-03T01:50:27.022Z,-1.78
2022-12-03T01:52:56.984Z,-1.75
2022-12-03T01:55:27.211Z,-1.69
2022-12-03T01:57:58.258Z,-1.65
2022-12-03T02:00:27.977Z,-1.60
2022-12-03T02:02:59.286Z,-1.57
2022-12-03T02:05:29.094Z,-1.53
2022-12-03T02:07:57.883Z,-1.50
2022-12-03T02:10:29.037Z,-1.48
2022-12-03T02:13:00.969Z,-1.49
2022-12-03T02:15:28.819Z,-1.47
2022-12-03T02:17:58.328Z,-1.39
2022-12-03T02:20:26.575Z,-1.43
2022-12-03T02:23:01.050Z,-1.49
2022-12-03T02:25:33.311Z,-1.59
2022-12-03T02:28:02.696Z,-1.71
2022-12-03T02:30:31.854Z,-1.84
2022-12-03T02:33:00.327Z,-1.98
2022-12-03T02:35:31.388Z,-2.10
2022-12-03T02:38:03.589Z,-2.26
2022-12-03T02:40:34.165Z,-2.39
2022-12-03T02:43:03.873Z,-2.54
2022-12-03T02:45:35.956Z,-2.67
2022-12-03T02:48:07.638Z,-2.79
2022-12-03T02:50:39.004Z,-2.91
2022-12-03T02:53:11.458Z,-3.03
2022-12-03T02:55:42.002Z,-3.12
2022-12-03T02:58:11.263Z,-3.20
2022-12-03T03:00:39.817Z,-3.27
2022-12-03T03:03:10.009Z,-3.34
2022-12-03T03:05:41.514Z,-3.40
2022-12-03T03:08:11.657Z,-3.60
2022-12-03T03:10:43.228Z,-3.51
2022-12-03T03:13:13.046Z,-3.53
2022-12-03T03:15:42.336Z,-3.54
2022-12-03T03:18:11.514Z,-3.59
2022-12-03T03:20:39.878Z,-3.52
2022-12-03T03:23:15.447Z,-3.44
2022-12-03T03:25:47.833Z,-3.34
2022-12-03T03:28:17.087Z,-3.30
2022-12-03T03:30:45.523Z,-3.30
2022-12-03T03:33:15.965Z,-3.28
2022-12-03T03:35:46.377Z,-3.22
2022-12-03T03:38:15.043Z,-3.16
2022-12-03T03:40:45.242Z,-3.10
2022-12-03T03:43:14.212Z,-3.03
2022-12-03T03:45:42.656Z,-2.98
2022-12-03T03:48:11.617Z,-2.95
2022-12-03T03:50:39.663Z,-2.89
2022-12-03T03:53:07.840Z,-2.84
2022-12-03T03:55:35.841Z,-2.86
2022-12-03T03:58:05.329Z,-2.99
2022-12-03T04:00:33.789Z,-2.81
2022-12-03T04:03:01.793Z,-2.87
2022-12-03T04:05:30.008Z,-2.91
2022-12-03T04:07:58.908Z,-2.97
2022-12-03T04:10:43.564Z,-3.03
2022-12-03T04:13:12.826Z,-3.08
2022-12-03T04:15:40.641Z,-3.13
2022-12-03T04:18:31.253Z,-3.21
2022-12-03T04:21:13.056Z,-3.80
2022-12-03T04:23:40.863Z,-3.33
2022-12-03T04:26:26.288Z,-3.34
2022-12-03T04:28:55.701Z,-3.28
2022-12-03T04:31:41.382Z,-3.23
2022-12-03T04:34:28.135Z,-3.17
2022-12-03T04:36:56.418Z,-3.11
2022-12-03T04:39:24.477Z,-3.05
2022-12-03T04:41:52.608Z,-2.97
2022-12-03T04:44:35.700Z,-2.91
2022-12-03T04:47:06.089Z,-2.85
2022-12-03T04:49:35.131Z,-2.76
2022-12-03T04:52:02.968Z,-2.72
2022-12-03T04:54:30.834Z,-2.70
2022-12-03T04:56:58.650Z,-2.67
2022-12-03T04:59:27.820Z,-2.64
2022-12-03T05:01:56.023Z,-2.59
2022-12-03T05:04:24.062Z,-2.58
2022-12-03T05:06:52.325Z,-2.60
2022-12-03T05:09:20.499Z,-2.54
2022-12-03T05:11:48.525Z,-2.50
2022-12-03T05:14:16.524Z,-2.49
2022-12-03T05:16:45.845Z,-2.48
2022-12-03T05:19:13.733Z,-2.46
2022-12-03T05:21:40.615Z,-2.44
2022-12-03T05:24:08.706Z,-2.42
2022-12-03T05:26:36.714Z,-2.42
2022-12-03T05:29:04.673Z,-2.39
2022-12-03T05:31:32.716Z,-2.37
2022-12-03T05:34:01.868Z,-2.35
2022-12-03T05:36:29.636Z,-2.34
2022-12-03T05:38:57.499Z,-2.31
2022-12-03T05:41:42.697Z,-2.23
2022-12-03T05:44:10.709Z,-2.22
2022-12-03T05:46:38.626Z,-2.21
2022-12-03T05:49:07.897Z,-2.15
2022-12-03T05:51:35.786Z,-2.19
2022-12-03T05:54:03.777Z,-2.15
2022-12-03T05:56:31.557Z,-2.13
2022-12-03T05:58:59.502Z,-2.14
2022-12-03T06:01:27.448Z,-2.16
2022-12-03T06:03:55.381Z,-2.09
2022-12-03T06:06:24.627Z,-2.10
2022-12-03T06:08:52.462Z,-2.10
2022-12-03T06:11:20.298Z,-2.07
2022-12-03T06:13:48.115Z,-2.05
2022-12-03T06:16:15.982Z,-2.06
2022-12-03T06:18:43.916Z,-2.05
2022-12-03T06:21:11.714Z,-2.02
2022-12-03T06:23:44.571Z,-2.01
2022-12-03T06:26:12.785Z,-2.01
2022-12-03T06:28:40.696Z,-2.00
2022-12-03T06:31:08.599Z,-2.00
2022-12-03T06:33:36.426Z,-1.97
2022-12-03T06:36:04.675Z,-1.96
2022-12-03T06:38:32.469Z,-1.95
2022-12-03T06:41:01.736Z,-1.93
2022-12-03T06:43:30.959Z,-1.94
2022-12-03T06:45:58.993Z,-1.92
2022-12-03T06:48:26.876Z,-1.94
2022-12-03T06:50:54.632Z,-1.96
2022-12-03T06:53:22.450Z,-1.93
2022-12-03T06:55:50.351Z,-1.94
2022-12-03T06:58:19.628Z,-2.03
2022-12-03T07:00:47.455Z,-1.91
2022-12-03T07:03:15.331Z,-1.96
2022-12-03T07:05:43.205Z,-1.94
2022-12-03T07:08:11.292Z,-1.90
2022-12-03T07:10:39.223Z,-1.91
2022-12-03T07:13:07.080Z,-1.89
2022-12-03T07:15:36.225Z,-1.89
2022-12-03T07:18:04.000Z,-1.85
2022-12-03T07:20:31.812Z,-1.85
2022-12-03T07:22:59.684Z,-1.83
2022-12-03T07:25:27.536Z,-1.83
2022-12-03T07:27:55.466Z,-1.81
2022-12-03T07:30:24.345Z,-1.78
2022-12-03T07:32:53.581Z,-1.78
2022-12-03T07:35:21.731Z,-1.76
2022-12-03T07:37:49.542Z,-1.76
2022-12-03T07:40:17.396Z,-1.72
2022-12-03T07:42:45.179Z,-1.72
2022-12-03T07:45:13.171Z,-1.67
2022-12-03T07:47:40.991Z,-1.66
2022-12-03T07:50:11.462Z,-1.63
2022-12-03T07:52:39.343Z,-1.61
2022-12-03T07:55:08.160Z,-1.59
2022-12-03T07:57:35.949Z,-1.55
2022-12-03T08:00:06.195Z,-1.55
2022-12-03T08:02:34.103Z,-1.57
2022-12-03T08:05:02.246Z,-1.54
2022-12-03T08:07:31.649Z,-1.58
2022-12-03T08:09:59.634Z,-1.51
2022-12-03T08:12:40.146Z,-1.44
2022-12-03T08:15:12.682Z,-1.37
2022-12-03T08:17:42.333Z,-1.39
2022-12-03T08:20:16.280Z,-1.37
2022-12-03T08:22:47.880Z,-1.35
2022-12-03T08:25:21.368Z,-1.32
2022-12-03T08:27:49.587Z,-1.49
2022-12-03T08:30:18.249Z,-1.27
2022-12-03T08:32:46.679Z,-1.25
2022-12-03T08:35:16.502Z,-1.22
2022-12-03T08:37:45.649Z,-1.27
2022-12-03T08:40:23.200Z,-1.27
2022-12-03T08:42:51.386Z,-1.33
2022-12-03T08:45:41.102Z,-1.17
2022-12-03T08:48:32.444Z,-1.13
2022-12-03T08:51:03.085Z,-1.19
2022-12-03T08:53:35.409Z,-1.09
2022-12-03T08:56:06.031Z,-1.07
2022-12-03T08:58:42.221Z,-1.12
2022-12-03T09:01:30.127Z,-1.16
2022-12-03T09:04:04.392Z,-1.21
2022-12-03T09:06:32.527Z,-1.14
2022-12-03T09:09:06.506Z,-1.12
2022-12-03T09:11:34.775Z,-1.04
2022-12-03T09:14:03.742Z,-1.11
2022-12-03T09:16:31.841Z,-1.09
2022-12-03T09:19:02.754Z,-1.04
2022-12-03T09:21:30.496Z,-1.05
2022-12-03T09:23:58.363Z,-0.94
2022-12-03T09:26:28.350Z,-0.89
2022-12-03T09:28:56.880Z,-0.90
2022-12-03T09:31:24.694Z,-0.79
2022-12-03T09:33:52.666Z,-0.76
2022-12-03T09:36:20.467Z,-0.70
2022-12-03T09:38:48.480Z,-0.67
2022-12-03T09:41:16.658Z,-0.59
2022-12-03T09:46:36.241Z,-0.46
2022-12-03T09:49:10.751Z,-0.52
2022-12-03T09:51:42.980Z,-0.46
2022-12-03T09:54:14.328Z,-0.45
2022-12-03T09:56:42.137Z,-0.27
2022-12-03T09:59:15.834Z,-0.25
2022-12-03T10:01:43.901Z,-0.40
2022-12-03T10:04:12.059Z,-0.34
2022-12-03T10:06:45.499Z,-0.15
2022-12-03T10:09:17.253Z,-0.13
2022-12-03T10:11:45.766Z,-0.19
2022-12-03T10:14:18.192Z,-0.30
2022-12-03T10:16:46.872Z,-0.26
2022-12-03T10:19:22.950Z,-0.10
2022-12-03T10:21:51.332Z,-0.04
2022-12-03T10:24:21.829Z,0.09
2022-12-03T10:26:53.355Z,0.07
2022-12-03T10:29:28.323Z,0.10
2022-12-03T10:32:03.673Z,-0.03
2022-12-03T10:34:33.341Z,-0.01
2022-12-03T10:37:11.622Z,-0.04
2022-12-03T10:39:58.662Z,-0.01
2022-12-03T10:42:27.811Z,-0.09
2022-12-03T10:45:15.323Z,-0.29
2022-12-03T10:47:43.774Z,-0.39
2022-12-03T10:50:18.061Z,-0.35
2022-12-03T10:52:46.533Z,-0.36
2022-12-03T10:55:15.998Z,-0.48
2022-12-03T10:57:45.843Z,-0.41
2022-12-03T11:00:19.326Z,-0.34
2022-12-03T11:02:54.815Z,-0.40
2022-12-03T11:05:27.883Z,-0.31
2022-12-03T11:07:56.318Z,-0.40
2022-12-03T11:10:24.613Z,-0.36
2022-12-03T11:13:29.817Z,-0.44
2022-12-03T11:15:59.667Z,-0.48
2022-12-03T11:19:01.680Z,-0.47
2022-12-03T11:21:30.502Z,-0.42
2022-12-03T11:24:22.020Z,-0.43
2022-12-03T11:27:19.396Z,-0.47
2022-12-03T11:29:50.493Z,-0.53
2022-12-03T11:33:07.340Z,-0.51
2022-12-03T11:36:12.230Z,-0.60
2022-12-03T11:39:01.119Z,-0.53
2022-12-03T11:41:32.169Z,-0.48
2022-12-03T11:44:06.280Z,-0.56
2022-12-03T11:46:44.190Z,-0.50
2022-12-03T11:49:31.053Z,-0.50
2022-12-03T11:52:02.608Z,-0.60
2022-12-03T11:54:35.540Z,-0.59
2022-12-03T11:57:03.888Z,-0.54
2022-12-03T11:59:31.691Z,-0.61
2022-12-03T12:01:59.480Z,-0.57
2022-12-03T12:04:33.574Z,-0.63
2022-12-03T12:07:03.187Z,-0.69
2022-12-03T12:09:51.747Z,-0.71
2022-12-03T12:12:22.195Z,-0.72
2022-12-03T12:14:50.025Z,-0.65
2022-12-03T12:17:32.311Z,-0.57
2022-12-03T12:20:25.967Z,-0.56
2022-12-03T12:22:56.565Z,-0.57
2022-12-03T12:25:41.635Z,-0.62
2022-12-03T12:28:09.824Z,-0.59
2022-12-03T12:30:37.719Z,-0.51
2022-12-03T12:33:18.970Z,-0.49
2022-12-03T12:35:47.135Z,-0.51
2022-12-03T12:38:19.392Z,-0.56
2022-12-03T12:40:49.335Z,-0.52
2022-12-03T12:43:24.822Z,-0.56
2022-12-03T12:45:55.072Z,-0.52
2022-12-03T12:48:25.628Z,-0.45
2022-12-03T12:51:00.921Z,-0.43
2022-12-03T12:53:33.024Z,-0.48
2022-12-03T12:56:02.447Z,-0.55
2022-12-03T12:58:33.364Z,-0.65
2022-12-03T13:01:04.938Z,-0.66
2022-12-03T13:03:35.537Z,-0.71
2022-12-03T13:06:03.762Z,-0.74
2022-12-03T13:08:34.904Z,-0.82
2022-12-03T13:11:03.747Z,-0.91
2022-12-03T13:13:41.788Z,-0.89
2022-12-03T13:16:18.604Z,-0.89
2022-12-03T13:18:48.075Z,-0.93
2022-12-03T13:21:25.744Z,-0.94
2022-12-03T13:23:57.324Z,-1.06
2022-12-03T13:26:36.523Z,-1.10
2022-12-03T13:29:12.573Z,-0.97
2022-12-03T13:31:43.732Z,-0.98
2022-12-03T13:34:17.332Z,-0.95
2022-12-03T13:36:51.993Z,-0.91
2022-12-03T13:39:30.378Z,-0.95
2022-12-03T13:42:17.940Z,-1.07
2022-12-03T13:44:48.573Z,-1.02
2022-12-03T13:47:20.655Z,-1.14
2022-12-03T13:49:53.686Z,-1.08
2022-12-03T13:52:37.205Z,-1.14
2022-12-03T13:55:11.580Z,-1.19
2022-12-03T13:57:39.330Z,-1.20
2022-12-03T14:00:08.531Z,-1.17
2022-12-03T14:02:36.576Z,-1.17
2022-12-03T14:05:04.678Z,-1.14
2022-12-03T14:07:32.798Z,-1.24
2022-12-03T14:10:00.650Z,-1.34
2022-12-03T14:12:33.727Z,-1.24
2022-12-03T14:15:01.854Z,-1.22
2022-12-03T14:17:30.343Z,-1.19
2022-12-03T14:19:58.161Z,-1.22
2022-12-03T14:22:26.075Z,-1.21
2022-12-03T14:24:55.017Z,-1.18
2022-12-03T14:27:24.675Z,-1.17
2022-12-03T14:29:54.389Z,-1.20
2022-12-03T14:32:22.513Z,-1.18
2022-12-03T14:34:50.353Z,-1.18
2022-12-03T14:37:18.423Z,-1.18
2022-12-03T14:39:46.200Z,-1.19
2022-12-03T14:42:14.051Z,-1.29
2022-12-03T14:44:42.609Z,-1.29
2022-12-03T14:47:12.020Z,-1.30
2022-12-03T14:49:39.998Z,-1.31
2022-12-03T14:52:12.001Z,-1.30
2022-12-03T14:54:42.348Z,-1.30
2022-12-03T14:57:11.635Z,-1.26
2022-12-03T14:59:39.809Z,-1.33
2022-12-03T15:02:07.980Z,-1.28
2022-12-03T15:04:37.528Z,-1.29
2022-12-03T15:07:05.369Z,-1.34
2022-12-03T15:09:33.316Z,-1.34
2022-12-03T15:12:01.212Z,-1.38
2022-12-03T15:14:29.282Z,-1.36
2022-12-03T15:16:57.292Z,-1.35
2022-12-03T15:19:25.164Z,-1.37
2022-12-03T15:21:54.423Z,-1.40
2022-12-03T15:24:22.456Z,-1.39
2022-12-03T15:26:52.239Z,-1.39
2022-12-03T15:29:20.190Z,-1.39
2022-12-03T15:31:48.442Z,-1.41
2022-12-03T15:34:22.249Z,-1.43
2022-12-03T15:36:50.622Z,-1.43
2022-12-03T15:39:19.967Z,-1.43
2022-12-03T15:41:47.899Z,-1.44
2022-12-03T15:44:16.076Z,-1.46
2022-12-03T15:46:44.016Z,-1.45
2022-12-03T15:49:12.207Z,-1.54
2022-12-03T15:51:40.031Z,-1.59
2022-12-03T15:54:08.394Z,-1.60
2022-12-03T15:56:37.759Z,-1.62
2022-12-03T15:59:05.766Z,-1.62
2022-12-03T16:01:33.903Z,-1.62
2022-12-03T16:04:01.872Z,-1.63
2022-12-03T16:06:29.993Z,-1.62
2022-12-03T16:08:57.940Z,-1.61
2022-12-03T16:11:25.790Z,-1.60
2022-12-03T16:13:55.034Z,-1.66
2022-12-03T16:16:23.127Z,-1.62
2022-12-03T16:18:51.243Z,-1.60
2022-12-03T16:21:24.952Z,-1.59
2022-12-03T16:23:54.448Z,-1.57
2022-12-03T16:26:22.444Z,-1.56
2022-12-03T16:28:50.357Z,-1.56
2022-12-03T16:31:20.149Z,-1.52
2022-12-03T16:33:48.411Z,-1.48
2022-12-03T16:36:16.908Z,-1.49
2022-12-03T16:38:44.978Z,-1.49
2022-12-03T16:41:13.170Z,-1.47
2022-12-03T16:43:40.966Z,-1.48
2022-12-03T16:46:25.556Z,-1.46
2022-12-03T16:48:57.794Z,-1.43
2022-12-03T16:51:26.313Z,-1.43
2022-12-03T16:53:54.556Z,-1.42
2022-12-03T16:56:22.397Z,-1.43
2022-12-03T16:58:50.243Z,-1.40
2022-12-03T17:01:18.411Z,-1.42
2022-12-03T17:03:46.312Z,-1.41
2022-12-03T17:06:15.615Z,-1.41
2022-12-03T17:08:49.024Z,-1.42
2022-12-03T17:11:17.882Z,-1.46
2022-12-03T17:13:45.675Z,-1.48
2022-12-03T17:16:14.748Z,-1.51
2022-12-03T17:18:42.714Z,-1.49
2022-12-03T17:21:10.565Z,-1.48
2022-12-03T17:23:39.698Z,-1.47
2022-12-03T17:26:09.068Z,-1.47
2022-12-03T17:28:36.882Z,-1.48
2022-12-03T17:31:04.780Z,-1.50
2022-12-03T17:33:32.681Z,-1.49
2022-12-03T17:36:00.659Z,-1.48
2022-12-03T17:38:30.656Z,-1.48
2022-12-03T17:41:03.468Z,-1.54
2022-12-03T17:43:31.300Z,-1.45
2022-12-03T17:46:00.097Z,-1.43
2022-12-03T17:48:29.307Z,-1.43
2022-12-03T17:50:58.106Z,-1.40
2022-12-03T17:53:26.012Z,-1.39
2022-12-03T17:55:53.854Z,-1.37
2022-12-03T17:58:22.996Z,-1.36
2022-12-03T18:00:50.966Z,-1.37
2022-12-03T18:03:19.042Z,-1.31
2022-12-03T18:05:46.832Z,-1.33
2022-12-03T18:08:14.617Z,-1.35
2022-12-03T18:10:42.479Z,-1.35
2022-12-03T18:13:10.339Z,-1.37
2022-12-03T18:15:39.561Z,-1.39
2022-12-03T18:18:07.420Z,-1.35
2022-12-03T18:20:35.341Z,-1.37
2022-12-03T18:23:04.073Z,-1.37
2022-12-03T18:25:32.113Z,-1.36
2022-12-03T18:27:59.896Z,-1.36
2022-12-03T18:30:27.969Z,-1.37
2022-12-03T18:32:57.515Z,-1.38
2022-12-03T18:35:25.490Z,-1.36
2022-12-03T18:37:53.463Z,-1.36
2022-12-03T18:40:24.665Z,-1.48
2022-12-03T18:42:52.531Z,-1.40
2022-12-03T18:45:20.608Z,-1.39
2022-12-03T18:47:48.726Z,-1.41
2022-12-03T18:50:18.160Z,-1.37
2022-12-03T18:52:45.988Z,-1.36
2022-12-03T18:55:18.577Z,-1.35
2022-12-03T18:57:46.694Z,-1.31
2022-12-03T19:00:15.820Z,-1.35
2022-12-03T19:05:34.721Z,-1.34
2022-12-03T19:08:03.150Z,-1.32
2022-12-03T19:10:31.308Z,-1.36
2022-12-03T19:12:59.313Z,-1.45
2022-12-03T19:15:27.153Z,-1.38
2022-12-03T19:17:55.161Z,-1.37
2022-12-03T19:20:23.136Z,-1.42
2022-12-03T19:22:52.372Z,-1.36
2022-12-03T19:25:20.400Z,-1.34
2022-12-03T19:27:50.119Z,-1.34
2022-12-03T19:30:18.374Z,-1.36
2022-12-03T19:32:46.449Z,-1.35
2022-12-03T19:35:14.344Z,-1.33
2022-12-03T19:37:42.278Z,-1.34
2022-12-03T19:40:12.134Z,-1.30
2022-12-03T19:42:40.556Z,-1.33
2022-12-03T19:45:09.671Z,-1.28
2022-12-03T19:47:37.998Z,-1.28
2022-12-03T19:50:07.208Z,-1.27
2022-12-03T19:52:36.590Z,-1.28
2022-12-03T19:55:05.121Z,-1.28
2022-12-03T19:57:34.287Z,-1.27
2022-12-03T20:00:02.273Z,-1.29
2022-12-03T20:02:30.231Z,-1.28
2022-12-03T20:04:58.195Z,-1.26
2022-12-03T20:07:26.116Z,-1.27
2022-12-03T20:09:54.645Z,-1.27
2022-12-03T20:12:23.271Z,-1.31
2022-12-03T20:14:52.469Z,-1.30
2022-12-03T20:17:20.287Z,-1.37
2022-12-03T20:19:48.375Z,-1.31
2022-12-03T20:22:16.367Z,-1.27
2022-12-03T20:24:44.331Z,-1.32
2022-12-03T20:27:12.174Z,-1.25
2022-12-03T20:29:40.187Z,-1.25
2022-12-03T20:32:09.752Z,-1.23
2022-12-03T20:34:37.719Z,-1.26
2022-12-03T20:37:06.017Z,-1.22
2022-12-03T20:39:33.858Z,-1.19
2022-12-03T20:42:01.686Z,-1.20
2022-12-03T20:44:29.592Z,-1.21
2022-12-03T20:46:57.669Z,-1.21
2022-12-03T20:49:27.019Z,-1.21
2022-12-03T20:51:56.233Z,-1.21
2022-12-03T20:54:26.488Z,-1.20
2022-12-03T20:56:54.286Z,-1.20
2022-12-03T20:59:22.132Z,-1.20
2022-12-03T21:01:50.128Z,-1.19
2022-12-03T21:04:18.401Z,-1.19
2022-12-03T21:06:47.815Z,-1.18
2022-12-03T21:09:15.665Z,-1.19
2022-12-03T21:11:43.753Z,-1.28
2022-12-03T21:14:12.488Z,-1.19
2022-12-03T21:19:31.140Z,-1.28
2022-12-03T21:22:00.302Z,-1.19
2022-12-03T21:24:28.351Z,-1.19
2022-12-03T21:26:56.464Z,-1.19
2022-12-03T21:29:24.787Z,-1.23
2022-12-03T21:31:52.611Z,-1.20
2022-12-03T21:34:20.538Z,-1.21
2022-12-03T21:36:48.416Z,-1.20
2022-12-03T21:39:18.756Z,-1.18
2022-12-03T21:42:34.133Z,-1.19
2022-12-03T21:44:35.039Z,-1.20
2022-12-03T21:47:11.512Z,-1.20
2022-12-03T21:49:42.034Z,-1.19
2022-12-03T21:52:10.003Z,-1.18
2022-12-03T21:54:39.505Z,-1.17
2022-12-03T21:57:07.324Z,-1.18
2022-12-03T21:59:35.178Z,-1.17
2022-12-03T22:02:03.182Z,-1.17
2022-12-03T22:04:31.165Z,-1.18
2022-12-03T22:06:59.074Z,-1.20
2022-12-03T22:09:27.409Z,-1.17
2022-12-03T22:11:59.379Z,-1.17
2022-12-03T22:14:27.529Z,-1.20
2022-12-03T22:16:55.506Z,-1.15
2022-12-03T22:19:24.846Z,-1.15
2022-12-03T22:21:52.913Z,-1.15
2022-12-03T22:24:20.864Z,-1.15
2022-12-03T22:26:48.713Z,-1.14
2022-12-03T22:29:18.046Z,-1.13
2022-12-03T22:31:46.066Z,-1.13
2022-12-03T22:34:14.197Z,-1.18
2022-12-03T22:36:42.102Z,-1.13
2022-12-03T22:39:11.314Z,-1.11
2022-12-03T22:41:39.435Z,-1.15
2022-12-03T22:44:07.278Z,-1.13
2022-12-03T22:46:37.561Z,-1.12
2022-12-03T22:49:07.598Z,-1.10
2022-12-03T22:51:36.413Z,-1.09
2022-12-03T22:54:05.552Z,-1.10
2022-12-03T22:56:33.955Z,-1.15
2022-12-03T22:59:01.810Z,-1.12
2022-12-03T23:01:32.327Z,-1.09
2022-12-03T23:04:02.283Z,-1.11
2022-12-03T23:06:31.898Z,-1.11
2022-12-03T23:09:00.400Z,-1.10
2022-12-03T23:11:29.257Z,-1.10
2022-12-03T23:13:58.894Z,-1.08
2022-12-03T23:16:30.077Z,-1.13
2022-12-03T23:18:59.871Z,-1.12
2022-12-03T23:21:33.452Z,-1.12
2022-12-03T23:24:04.282Z,-1.12
2022-12-03T23:26:36.122Z,-1.12
2022-12-03T23:29:05.181Z,-1.14
2022-12-03T23:31:34.290Z,-1.16
2022-12-03T23:34:02.952Z,-1.20
2022-12-03T23:36:33.758Z,-1.16
2022-12-03T23:39:01.756Z,-1.11
2022-12-03T23:41:29.630Z,-1.13
2022-12-03T23:43:58.375Z,-1.21
2022-12-03T23:46:27.563Z,-1.11
2022-12-03T23:48:58.501Z,-1.11
2022-12-03T23:51:26.762Z,-1.11
2022-12-03T23:53:57.462Z,-1.09
2022-12-03T23:56:27.709Z,-1.10
2022-12-03T23:58:55.962Z,-1.09
